Portland Corners, Illinois
Current Conditions -  °F | °C
As of 8:35 AM on Sunday 21 Dec 2014 (Local Time) from KSQI Reporting Station
Overcast Overcast  
Wind Chill: 29°   Ceiling: 3100
Heat Index: 34°   Visibility: 5mi
Dew Point: 28°   Wind: 6mph
Humidity: 81%   Direction: 160°SSE
Pressure: 30.14"   Gusts: NA
Location:  41.5909°N, 89.9498°W
Report Text: KSQI 211435Z 16005KT 5SM BKN031 OVC035 01/M02 A3014 RMK AO1
Loading
Personal Weather Stations






























Interactive Weather Map New forecast layout! Learn more

10-Day Weather Forecast

Advertisements
Track Severe Weather on mobile